Time,TemperatureF,DewpointF,PressureIn,WindDirection,WindDirectionDegrees,WindSpeedMPH,WindSpeedGustMPH,Humidity,HourlyPrecipIn,Conditions,Clouds,dailyrainin,SolarRadiationWatts/m^2,SoftwareType,DateUTC
2013-06-17 00:12:00,63.0,40.0,-100.00,East,92,4.0,9.0,42,0.00,,,0.01,0.000000,,2013-06-17 06:12:00,
2013-06-17 00:22:00,63.0,40.0,-100.00,East,92,4.0,9.0,42,0.00,,,0.01,0.000000,,2013-06-17 06:22:00,
2013-06-17 00:33:00,63.0,40.0,-100.00,East,92,4.0,9.0,42,0.00,,,0.01,0.000000,,2013-06-17 06:33:00,
2013-06-17 00:43:00,63.0,40.0,-100.00,East,92,4.0,9.0,42,0.00,,,0.01,0.000000,,2013-06-17 06:43:00,
2013-06-17 00:51:00,61.0,40.0,-100.00,NNE,23,2.0,6.0,45,0.00,,,0.01,0.000000,,2013-06-17 06:51:00,
2013-06-17 01:12:00,61.0,40.0,-100.00,NNE,23,2.0,6.0,45,0.00,,,0.01,0.000000,,2013-06-17 07:12:00,
2013-06-17 01:22:00,61.0,40.0,-100.00,NNE,23,2.0,6.0,45,0.00,,,0.01,0.000000,,2013-06-17 07:22:00,
2013-06-17 01:33:00,61.0,40.0,-100.00,NNE,23,2.0,6.0,45,0.00,,,0.01,0.000000,,2013-06-17 07:33:00,
2013-06-17 01:43:00,61.0,40.0,-100.00,NNE,23,2.0,6.0,45,0.00,,,0.01,0.000000,,2013-06-17 07:43:00,
2013-06-17 01:51:00,60.0,40.0,-100.00,East,83,7.0,15.0,47,0.00,,,0.01,0.000000,,2013-06-17 07:51:00,
2013-06-17 02:11:00,60.0,40.0,-100.00,East,83,7.0,15.0,47,0.00,,,0.01,0.000000,,2013-06-17 08:11:00,
2013-06-17 02:22:00,60.0,40.0,-100.00,East,83,7.0,15.0,47,0.00,,,0.01,0.000000,,2013-06-17 08:22:00,
2013-06-17 02:33:00,60.0,40.0,-100.00,East,83,7.0,15.0,47,0.00,,,0.01,0.000000,,2013-06-17 08:33:00,
2013-06-17 02:43:00,60.0,40.0,-100.00,East,83,7.0,15.0,47,0.00,,,0.01,0.000000,,2013-06-17 08:43:00,
2013-06-17 02:51:00,59.0,40.0,-100.00,ENE,71,6.0,17.0,50,0.00,,,0.01,0.000000,,2013-06-17 08:51:00,
2013-06-17 03:11:00,59.0,40.0,-100.00,ENE,71,6.0,17.0,50,0.00,,,0.01,0.000000,,2013-06-17 09:11:00,
2013-06-17 03:22:00,59.0,40.0,-100.00,ENE,71,6.0,17.0,50,0.00,,,0.01,0.000000,,2013-06-17 09:22:00,
2013-06-17 03:34:00,59.0,40.0,-100.00,ENE,71,6.0,17.0,50,0.00,,,0.01,0.000000,,2013-06-17 09:34:00,
2013-06-17 03:43:00,59.0,40.0,-100.00,ENE,71,6.0,17.0,50,0.00,,,0.01,0.000000,,2013-06-17 09:43:00,
2013-06-17 03:51:00,58.0,39.0,-100.00,East,81,5.0,13.0,50,0.00,,,0.01,0.000000,,2013-06-17 09:51:00,
2013-06-17 04:12:00,58.0,39.0,-100.00,East,81,5.0,13.0,50,0.00,,,0.01,0.000000,,2013-06-17 10:12:00,
2013-06-17 04:22:00,58.0,39.0,-100.00,East,81,5.0,13.0,50,0.00,,,0.01,0.000000,,2013-06-17 10:22:00,
2013-06-17 04:33:00,58.0,39.0,-100.00,East,81,5.0,13.0,50,0.00,,,0.01,0.000000,,2013-06-17 10:33:00,
2013-06-17 04:43:00,58.0,39.0,-100.00,East,81,5.0,13.0,50,0.00,,,0.01,0.000000,,2013-06-17 10:43:00,
2013-06-17 04:51:00,57.0,39.0,-100.00,NE,46,2.0,16.0,51,0.00,,,0.01,0.000000,,2013-06-17 10:51:00,
2013-06-17 05:12:00,57.0,39.0,-100.00,NE,46,2.0,16.0,51,0.00,,,0.01,0.000000,,2013-06-17 11:12:00,
2013-06-17 05:23:00,57.0,39.0,-100.00,NE,46,2.0,16.0,51,0.00,,,0.01,0.000000,,2013-06-17 11:23:00,
2013-06-17 05:33:00,57.0,39.0,-100.00,NE,46,2.0,16.0,51,0.00,,,0.01,0.000000,,2013-06-17 11:33:00,
2013-06-17 05:43:00,57.0,39.0,-100.00,NE,46,2.0,16.0,51,0.00,,,0.01,0.000000,,2013-06-17 11:43:00,
2013-06-17 05:51:00,57.0,39.0,-100.00,East,82,6.0,14.0,51,0.00,,,0.01,1.000000,,2013-06-17 11:51:00,
2013-06-17 06:12:00,57.0,39.0,-100.00,East,82,6.0,14.0,51,0.00,,,0.01,1.000000,,2013-06-17 12:12:00,
2013-06-17 06:22:00,57.0,39.0,-100.00,East,82,6.0,14.0,51,0.00,,,0.01,1.000000,,2013-06-17 12:22:00,
2013-06-17 06:33:00,57.0,39.0,-100.00,East,82,6.0,14.0,51,0.00,,,0.01,1.000000,,2013-06-17 12:33:00,
2013-06-17 06:43:00,57.0,39.0,-100.00,East,82,6.0,14.0,51,0.00,,,0.01,1.000000,,2013-06-17 12:43:00,
2013-06-17 06:51:00,58.0,40.0,-100.00,NE,45,4.0,12.0,51,0.00,,,0.01,94.000000,,2013-06-17 12:51:00,
2013-06-17 07:12:00,58.0,40.0,-100.00,NE,45,4.0,12.0,51,0.00,,,0.01,94.000000,,2013-06-17 13:12:00,
2013-06-17 07:22:00,58.0,40.0,-100.00,NE,45,4.0,12.0,51,0.00,,,0.01,94.000000,,2013-06-17 13:22:00,
2013-06-17 07:32:00,58.0,40.0,-100.00,NE,45,4.0,12.0,51,0.00,,,0.01,94.000000,,2013-06-17 13:32:00,
2013-06-17 07:43:00,58.0,40.0,-100.00,NE,45,4.0,12.0,51,0.00,,,0.01,94.000000,,2013-06-17 13:43:00,
2013-06-17 07:51:00,61.0,40.0,-100.00,East,98,4.0,14.0,46,0.00,,,0.01,259.000000,,2013-06-17 13:51:00,
2013-06-17 08:12:00,61.0,40.0,-100.00,East,98,4.0,14.0,46,0.00,,,0.01,259.000000,,2013-06-17 14:12:00,
2013-06-17 08:22:00,61.0,40.0,-100.00,East,98,4.0,14.0,46,0.00,,,0.01,259.000000,,2013-06-17 14:22:00,
2013-06-17 08:34:00,61.0,40.0,-100.00,East,98,4.0,14.0,46,0.00,,,0.01,259.000000,,2013-06-17 14:34:00,
2013-06-17 08:43:00,61.0,40.0,-100.00,East,98,4.0,14.0,46,0.00,,,0.01,259.000000,,2013-06-17 14:43:00,
2013-06-17 08:51:00,66.0,41.0,-100.00,NNE,12,5.0,9.0,40,0.00,,,0.01,508.000000,,2013-06-17 14:51:00,
2013-06-17 09:12:00,66.0,41.0,-100.00,NNE,12,5.0,9.0,40,0.00,,,0.01,508.000000,,2013-06-17 15:12:00,
2013-06-17 09:22:00,66.0,41.0,-100.00,NNE,12,5.0,9.0,40,0.00,,,0.01,508.000000,,2013-06-17 15:22:00,
2013-06-17 09:33:00,66.0,41.0,-100.00,NNE,12,5.0,9.0,40,0.00,,,0.01,508.000000,,2013-06-17 15:33:00,
2013-06-17 09:43:00,66.0,41.0,-100.00,NNE,12,5.0,9.0,40,0.00,,,0.01,508.000000,,2013-06-17 15:43:00,
2013-06-17 09:51:00,72.0,41.0,-100.00,NE,56,5.0,12.0,33,0.00,,,0.00,750.000000,,2013-06-17 15:51:00,
2013-06-17 10:12:00,72.0,41.0,-100.00,NE,56,5.0,12.0,33,0.00,,,0.00,750.000000,,2013-06-17 16:12:00,
2013-06-17 10:22:00,72.0,41.0,-100.00,NE,56,5.0,12.0,33,0.00,,,0.00,750.000000,,2013-06-17 16:22:00,
2013-06-17 10:33:00,72.0,41.0,-100.00,NE,56,5.0,12.0,33,0.00,,,0.00,750.000000,,2013-06-17 16:33:00,
2013-06-17 10:43:00,72.0,41.0,-100.00,NE,56,5.0,12.0,33,0.00,,,0.00,750.000000,,2013-06-17 16:43:00,
2013-06-17 10:51:00,75.0,41.0,-100.00,NNE,30,4.0,10.0,29,0.00,,,0.00,951.000000,,2013-06-17 16:51:00,
2013-06-17 11:12:00,75.0,41.0,-100.00,NNE,30,4.0,10.0,29,0.00,,,0.00,951.000000,,2013-06-17 17:12:00,
2013-06-17 11:22:00,75.0,41.0,-100.00,NNE,30,4.0,10.0,29,0.00,,,0.00,951.000000,,2013-06-17 17:22:00,
2013-06-17 11:33:00,75.0,41.0,-100.00,NNE,30,4.0,10.0,29,0.00,,,0.00,951.000000,,2013-06-17 17:33:00,
2013-06-17 11:43:00,75.0,41.0,-100.00,NNE,30,4.0,10.0,29,0.00,,,0.00,951.000000,,2013-06-17 17:43:00,
2013-06-17 11:51:00,81.0,40.0,-100.00,NNE,14,3.0,9.0,23,0.00,,,0.00,1109.000000,,2013-06-17 17:51:00,
2013-06-17 12:12:00,81.0,40.0,-100.00,NNE,14,3.0,9.0,23,0.00,,,0.00,1109.000000,,2013-06-17 18:12:00,
2013-06-17 12:23:00,81.0,40.0,-100.00,NNE,14,3.0,9.0,23,0.00,,,0.00,1109.000000,,2013-06-17 18:23:00,
2013-06-17 12:33:00,81.0,40.0,-100.00,NNE,14,3.0,9.0,23,0.00,,,0.00,1109.000000,,2013-06-17 18:33:00,
2013-06-17 12:43:00,81.0,40.0,-100.00,NNE,14,3.0,9.0,23,0.00,,,0.00,1109.000000,,2013-06-17 18:43:00,
2013-06-17 12:51:00,86.0,33.0,-100.00,SE,134,5.0,12.0,15,0.00,,,0.00,1231.000000,,2013-06-17 18:51:00,
2013-06-17 13:43:00,86.0,33.0,-100.00,SE,134,5.0,12.0,15,0.00,,,0.00,1231.000000,,2013-06-17 19:43:00,
2013-06-17 14:11:00,79.0,27.0,-100.00,North,350,12.0,21.0,15,0.00,,,0.00,935.000000,,2013-06-17 20:11:00,
2013-06-17 15:51:00,84.0,30.0,-100.00,ENE,71,7.0,16.0,14,-99.99,,,0.00,848.000000,,2013-06-17 21:51:00,
2013-06-17 17:11:00,85.0,27.0,-100.00,ENE,60,4.0,11.0,12,0.00,,,0.00,916.000000,,2013-06-17 23:11:00,
2013-06-17 18:12:00,84.0,30.0,-100.00,North,354,5.0,16.0,14,0.00,,,0.00,704.000000,,2013-06-18 00:12:00,
2013-06-17 18:33:00,84.0,30.0,-100.00,North,354,5.0,16.0,14,0.00,,,0.00,704.000000,,2013-06-18 00:33:00,
2013-06-17 19:11:00,83.0,29.0,-100.00,East,91,3.0,15.0,14,0.00,,,0.00,384.000000,,2013-06-18 01:11:00,
2013-06-17 20:11:00,77.0,30.0,-100.00,South,183,10.0,23.0,18,0.00,,,0.00,250.000000,,2013-06-18 02:11:00,
2013-06-17 20:22:00,77.0,30.0,-100.00,South,183,10.0,23.0,18,0.00,,,0.00,250.000000,,2013-06-18 02:22:00,
2013-06-17 20:34:00,77.0,30.0,-100.00,South,183,10.0,23.0,18,0.00,,,0.00,250.000000,,2013-06-18 02:34:00,
2013-06-17 20:51:00,72.0,30.0,-100.00,SSW,195,5.0,14.0,21,0.00,,,0.00,17.000000,,2013-06-18 02:51:00,
2013-06-17 21:12:00,72.0,30.0,-100.00,SSW,195,5.0,14.0,21,0.00,,,0.00,17.000000,,2013-06-18 03:12:00,
2013-06-17 21:23:00,72.0,30.0,-100.00,SSW,195,5.0,14.0,21,0.00,,,0.00,17.000000,,2013-06-18 03:23:00,
2013-06-17 21:34:00,72.0,30.0,-100.00,SSW,195,5.0,14.0,21,0.00,,,0.00,17.000000,,2013-06-18 03:34:00,
2013-06-17 21:43:00,72.0,30.0,-100.00,SSW,195,5.0,14.0,21,0.00,,,0.00,17.000000,,2013-06-18 03:43:00,
2013-06-17 21:51:00,70.0,32.0,-100.00,SE,133,7.0,13.0,24,0.00,,,0.00,0.000000,,2013-06-18 03:51:00,
2013-06-17 22:12:00,70.0,32.0,-100.00,SE,133,7.0,13.0,24,0.00,,,0.00,0.000000,,2013-06-18 04:12:00,
2013-06-17 22:23:00,70.0,32.0,-100.00,SE,133,7.0,13.0,24,0.00,,,0.00,0.000000,,2013-06-18 04:23:00,
2013-06-17 22:34:00,70.0,32.0,-100.00,SE,133,7.0,13.0,24,0.00,,,0.00,0.000000,,2013-06-18 04:34:00,
2013-06-17 22:43:00,70.0,32.0,-100.00,SE,133,7.0,13.0,24,0.00,,,0.00,0.000000,,2013-06-18 04:43:00,
2013-06-17 22:51:00,69.0,33.0,-100.00,East,79,4.0,14.0,26,0.00,,,0.00,0.000000,,2013-06-18 04:51:00,
2013-06-17 23:12:00,69.0,33.0,-100.00,East,79,4.0,14.0,26,0.00,,,0.00,0.000000,,2013-06-18 05:12:00,
2013-06-17 23:22:00,69.0,33.0,-100.00,East,79,4.0,14.0,26,0.00,,,0.00,0.000000,,2013-06-18 05:22:00,
2013-06-17 23:33:00,69.0,33.0,-100.00,East,79,4.0,14.0,26,0.00,,,0.00,0.000000,,2013-06-18 05:33:00,
2013-06-17 23:43:00,69.0,33.0,-100.00,East,79,4.0,14.0,26,0.00,,,0.00,0.000000,,2013-06-18 05:43:00,
2013-06-17 23:51:00,67.0,31.0,-100.00,ENE,73,3.0,9.0,26,0.00,,,0.00,0.000000,,2013-06-18 05:51:00,